createdAt,value
2018-07-05T00:00:06.931Z,53
2018-07-05T00:00:17.804Z,53
2018-07-05T00:00:29.029Z,53
2018-07-05T00:00:41.617Z,53
2018-07-05T00:00:53.541Z,53
2018-07-05T00:01:05.018Z,53
2018-07-05T00:01:17.280Z,53
2018-07-05T00:01:30.039Z,53
2018-07-05T00:01:41.228Z,53
2018-07-05T00:01:52.040Z,52
2018-07-05T00:02:04.227Z,52
2018-07-05T00:02:17.104Z,52
2018-07-05T00:02:31.001Z,52
2018-07-05T00:02:41.871Z,53
2018-07-05T00:02:53.152Z,53
2018-07-05T00:03:06.089Z,53
2018-07-05T00:03:19.366Z,53
2018-07-05T00:03:32.741Z,53
2018-07-05T00:03:43.766Z,53
2018-07-05T00:03:56.610Z,53
2018-07-05T00:04:09.662Z,53
2018-07-05T00:04:22.541Z,53
2018-07-05T00:04:34.590Z,53
2018-07-05T00:04:45.223Z,53
2018-07-05T00:04:55.815Z,53
2018-07-05T00:05:06.519Z,53
2018-07-05T00:05:17.849Z,54
2018-07-05T00:05:29.996Z,54
2018-07-05T00:05:43.362Z,54
2018-07-05T00:05:59.794Z,54
2018-07-05T00:06:22.644Z,54
2018-07-05T00:06:58.377Z,54
2018-07-05T00:07:59.597Z,54
2018-07-05T00:09:09.870Z,54
2018-07-05T00:10:19.901Z,54
2018-07-05T00:11:29.903Z,54
2018-07-05T00:12:40.035Z,54
2018-07-05T00:13:50.088Z,53
2018-07-05T00:15:00.144Z,54
2018-07-05T00:16:10.200Z,55
2018-07-05T00:17:20.603Z,55
2018-07-05T00:18:30.817Z,55
2018-07-05T00:19:41.006Z,56
2018-07-05T00:20:51.158Z,56
2018-07-05T00:22:02.514Z,56
2018-07-05T00:22:13.118Z,55
2018-07-05T00:22:23.555Z,55
2018-07-05T00:22:34.082Z,55
2018-07-05T00:22:44.951Z,55
2018-07-05T00:22:56.516Z,55
2018-07-05T00:23:09.732Z,55
2018-07-05T00:23:26.218Z,55
2018-07-05T00:23:48.999Z,55
2018-07-05T00:24:24.647Z,55
2018-07-05T00:25:25.906Z,54
2018-07-05T00:26:35.989Z,54
2018-07-05T00:27:46.041Z,54
2018-07-05T00:28:56.155Z,56
2018-07-05T00:30:09.118Z,56
2018-07-05T00:30:20.511Z,56
2018-07-05T00:30:33.462Z,56
2018-07-05T00:30:46.831Z,56
2018-07-05T00:30:59.628Z,56
2018-07-05T00:31:12.109Z,56
2018-07-05T00:31:24.076Z,56
2018-07-05T00:31:36.632Z,55
2018-07-05T00:31:49.476Z,55
2018-07-05T00:32:01.796Z,55
2018-07-05T00:32:15.407Z,55
2018-07-05T00:32:27.527Z,55
2018-07-05T00:32:40.071Z,55
2018-07-05T00:32:52.821Z,55
2018-07-05T00:33:05.565Z,55
2018-07-05T00:33:18.691Z,55
2018-07-05T00:33:31.790Z,55
2018-07-05T00:33:44.181Z,55
2018-07-05T00:33:57.222Z,55
2018-07-05T00:34:09.026Z,55
2018-07-05T00:34:22.203Z,55
2018-07-05T00:34:34.545Z,55
2018-07-05T00:34:47.434Z,55
2018-07-05T00:34:59.889Z,55
2018-07-05T00:35:13.068Z,55
2018-07-05T00:35:25.932Z,55
2018-07-05T00:35:39.211Z,55
2018-07-05T00:35:51.504Z,55
2018-07-05T00:36:04.759Z,55
2018-07-05T00:36:16.491Z,55
2018-07-05T00:36:29.817Z,55
2018-07-05T00:36:43.030Z,55
2018-07-05T00:36:56.167Z,56
2018-07-05T00:37:09.026Z,56
2018-07-05T00:37:22.393Z,56
2018-07-05T00:37:33.724Z,56
2018-07-05T00:37:45.877Z,56
2018-07-05T00:37:59.050Z,56
2018-07-05T00:38:11.591Z,56
2018-07-05T00:38:24.791Z,56
2018-07-05T00:38:36.673Z,56
2018-07-05T00:38:49.972Z,56
2018-07-05T00:39:02.556Z,56
2018-07-05T00:39:15.348Z,56
2018-07-05T00:39:28.129Z,56
2018-07-05T00:39:38.970Z,56
2018-07-05T00:39:51.545Z,56
2018-07-05T00:40:04.712Z,56
2018-07-05T00:40:18.307Z,56
2018-07-05T00:40:30.738Z,56
2018-07-05T00:40:43.187Z,56
2018-07-05T00:40:56.304Z,56
2018-07-05T00:41:09.066Z,56
2018-07-05T00:41:22.154Z,56
2018-07-05T00:41:35.228Z,56
2018-07-05T00:41:46.424Z,56
2018-07-05T00:41:59.538Z,56
2018-07-05T00:42:12.089Z,56
2018-07-05T00:42:25.397Z,56
2018-07-05T00:42:38.495Z,56
2018-07-05T00:42:50.797Z,56
2018-07-05T00:43:03.484Z,56
2018-07-05T00:43:14.306Z,56
2018-07-05T00:43:26.996Z,56
2018-07-05T00:43:39.339Z,56
2018-07-05T00:43:51.123Z,56
2018-07-05T00:44:04.532Z,56
2018-07-05T00:44:17.336Z,56
2018-07-05T00:44:29.785Z,56
2018-07-05T00:44:42.930Z,56
2018-07-05T00:44:55.138Z,56
2018-07-05T00:45:08.791Z,56
2018-07-05T00:45:21.856Z,57
2018-07-05T00:45:34.954Z,57
2018-07-05T00:45:47.869Z,57
2018-07-05T00:45:59.878Z,57
2018-07-05T00:46:12.398Z,57
2018-07-05T00:46:25.732Z,57
2018-07-05T00:46:38.285Z,57
2018-07-05T00:46:51.557Z,57
2018-07-05T00:47:05.011Z,57
2018-07-05T00:47:18.046Z,57
2018-07-05T00:47:31.816Z,57
2018-07-05T00:47:44.755Z,57
2018-07-05T00:47:56.130Z,57
2018-07-05T00:48:09.578Z,57
2018-07-05T00:48:21.740Z,57
2018-07-05T00:48:34.600Z,57
2018-07-05T00:48:47.179Z,57
2018-07-05T00:48:58.561Z,57
2018-07-05T00:49:12.063Z,57
2018-07-05T00:49:24.164Z,57
2018-07-05T00:49:36.844Z,57
2018-07-05T00:49:49.776Z,57
2018-07-05T00:50:01.554Z,57
2018-07-05T00:50:14.979Z,57
2018-07-05T00:50:27.264Z,57
2018-07-05T00:50:41.082Z,57
2018-07-05T00:50:54.243Z,57
2018-07-05T00:51:07.064Z,57
2018-07-05T00:51:19.793Z,57
2018-07-05T00:51:32.605Z,57
2018-07-05T00:51:45.720Z,57
2018-07-05T00:51:58.934Z,57
2018-07-05T00:52:11.796Z,56
2018-07-05T00:52:25.054Z,56
2018-07-05T00:52:37.823Z,56
2018-07-05T00:52:50.509Z,56
2018-07-05T00:53:03.145Z,56
2018-07-05T00:53:16.487Z,56
2018-07-05T00:53:28.780Z,56
2018-07-05T00:53:41.459Z,56
2018-07-05T00:53:54.539Z,56
2018-07-05T00:54:07.775Z,56
2018-07-05T00:54:21.640Z,56
2018-07-05T00:54:34.663Z,56
2018-07-05T00:54:47.564Z,56
2018-07-05T00:55:00.638Z,56
2018-07-05T00:55:12.380Z,56
2018-07-05T00:55:25.367Z,56
2018-07-05T00:55:38.031Z,56
2018-07-05T00:55:51.471Z,56
2018-07-05T00:56:04.116Z,56
2018-07-05T00:56:15.117Z,56
2018-07-05T00:56:28.253Z,56
2018-07-05T00:56:41.281Z,56
2018-07-05T00:56:53.911Z,56
2018-07-05T00:57:06.700Z,56
2018-07-05T00:57:17.486Z,57
2018-07-05T00:57:31.342Z,57
2018-07-05T00:57:45.084Z,57
2018-07-05T00:57:57.748Z,57
2018-07-05T00:58:09.668Z,57
2018-07-05T00:58:22.850Z,57
2018-07-05T00:58:35.617Z,57
2018-07-05T00:58:48.036Z,57
2018-07-05T00:59:01.354Z,57
2018-07-05T00:59:14.466Z,57
2018-07-05T00:59:27.338Z,57
2018-07-05T00:59:40.623Z,57
2018-07-05T00:59:53.416Z,57
2018-07-05T01:00:05.709Z,57
2018-07-05T01:00:18.353Z,57
2018-07-05T01:00:31.320Z,57
2018-07-05T01:00:44.125Z,57
2018-07-05T01:00:57.116Z,57
2018-07-05T01:01:09.154Z,57
2018-07-05T01:01:21.804Z,57
2018-07-05T01:01:33.770Z,57
2018-07-05T01:01:45.637Z,57
2018-07-05T01:01:56.893Z,57
2018-07-05T01:02:09.258Z,57
2018-07-05T01:02:21.426Z,57
2018-07-05T01:02:33.311Z,57
2018-07-05T01:02:45.705Z,57
2018-07-05T01:02:58.238Z,57
2018-07-05T01:03:11.580Z,57
2018-07-05T01:03:24.294Z,58
2018-07-05T01:03:36.379Z,58
2018-07-05T01:03:48.551Z,58
2018-07-05T01:04:00.971Z,58
2018-07-05T01:04:12.017Z,58
2018-07-05T01:04:23.699Z,58
2018-07-05T01:04:35.262Z,58
2018-07-05T01:04:47.224Z,58
2018-07-05T01:04:59.112Z,58
2018-07-05T01:05:11.893Z,58
2018-07-05T01:05:23.861Z,58
2018-07-05T01:05:34.723Z,58
2018-07-05T01:05:46.838Z,58
2018-07-05T01:05:59.018Z,58
2018-07-05T01:06:11.027Z,58
2018-07-05T01:06:22.113Z,58
2018-07-05T01:06:34.977Z,58
2018-07-05T01:06:46.941Z,58
2018-07-05T01:06:59.298Z,58
2018-07-05T01:07:11.614Z,58
2018-07-05T01:07:24.286Z,58
2018-07-05T01:07:37.105Z,57
2018-07-05T01:07:49.959Z,57
2018-07-05T01:08:02.265Z,57
2018-07-05T01:08:14.952Z,57
2018-07-05T01:08:27.120Z,57
2018-07-05T01:08:39.730Z,57
2018-07-05T01:08:51.294Z,57
2018-07-05T01:09:03.844Z,57
2018-07-05T01:09:15.579Z,57
2018-07-05T01:09:28.223Z,57
2018-07-05T01:09:40.567Z,57
2018-07-05T01:09:53.499Z,57
2018-07-05T01:10:05.771Z,57
2018-07-05T01:10:17.871Z,57
2018-07-05T01:10:29.261Z,57
2018-07-05T01:10:41.823Z,57
2018-07-05T01:10:53.843Z,57
2018-07-05T01:11:05.199Z,57
2018-07-05T01:11:17.228Z,57
2018-07-05T01:11:29.504Z,57
2018-07-05T01:11:42.232Z,57
2018-07-05T01:11:54.175Z,57
2018-07-05T01:12:06.600Z,57
2018-07-05T01:12:19.216Z,57
2018-07-05T01:12:31.694Z,57
2018-07-05T01:12:44.725Z,57
2018-07-05T01:12:57.577Z,57
2018-07-05T01:13:10.031Z,57
2018-07-05T01:13:22.349Z,57
2018-07-05T01:13:35.236Z,58
2018-07-05T01:13:47.762Z,58
2018-07-05T01:13:59.432Z,58
2018-07-05T01:14:11.131Z,58
2018-07-05T01:14:22.704Z,58
2018-07-05T01:14:35.223Z,58
2018-07-05T01:14:47.768Z,58
2018-07-05T01:14:59.848Z,58
2018-07-05T01:15:12.935Z,58
2018-07-05T01:15:25.395Z,58
2018-07-05T01:15:38.580Z,58
2018-07-05T01:15:50.765Z,58
2018-07-05T01:16:03.711Z,58
2018-07-05T01:16:15.328Z,58
2018-07-05T01:16:28.468Z,58
2018-07-05T01:16:41.685Z,58
2018-07-05T01:16:54.485Z,58
2018-07-05T01:17:07.508Z,58
2018-07-05T01:17:20.151Z,58
2018-07-05T01:17:33.188Z,58
2018-07-05T01:17:46.053Z,58
2018-07-05T01:17:57.777Z,58
2018-07-05T01:18:10.973Z,58
2018-07-05T01:18:23.353Z,58
2018-07-05T01:18:36.692Z,58
2018-07-05T01:18:48.924Z,58
2018-07-05T01:19:01.190Z,58
2018-07-05T01:19:14.255Z,58
2018-07-05T01:19:26.237Z,58
2018-07-05T01:19:39.986Z,58
2018-07-05T01:19:52.579Z,58
2018-07-05T01:20:04.488Z,58
2018-07-05T01:20:16.861Z,58
2018-07-05T01:20:29.060Z,58
2018-07-05T01:20:42.331Z,58
2018-07-05T01:20:54.351Z,58
2018-07-05T01:21:07.421Z,58
2018-07-05T01:21:19.796Z,58
2018-07-05T01:21:31.985Z,58
2018-07-05T01:21:44.844Z,58
2018-07-05T01:21:57.573Z,58
2018-07-05T01:22:11.059Z,59
2018-07-05T01:22:23.540Z,59
2018-07-05T01:22:36.224Z,59
2018-07-05T01:22:49.003Z,59
2018-07-05T01:23:02.078Z,59
2018-07-05T01:23:14.304Z,59
2018-07-05T01:23:26.656Z,59
2018-07-05T01:23:38.660Z,59
2018-07-05T01:23:51.116Z,59
2018-07-05T01:24:03.709Z,59
2018-07-05T01:24:16.254Z,59
2018-07-05T01:24:28.218Z,59
2018-07-05T01:24:40.144Z,59
2018-07-05T01:24:53.083Z,59
2018-07-05T01:25:05.135Z,59
2018-07-05T01:25:17.914Z,59
2018-07-05T01:25:28.994Z,59
2018-07-05T01:25:40.025Z,59
2018-07-05T01:25:50.641Z,59
2018-07-05T01:26:02.337Z,59
2018-07-05T01:26:12.951Z,59
2018-07-05T01:26:23.484Z,59
2018-07-05T01:26:33.929Z,59
2018-07-05T01:26:44.819Z,59
2018-07-05T01:26:56.542Z,59
2018-07-05T01:27:10.516Z,59
2018-07-05T01:27:22.286Z,59
2018-07-05T01:27:33.034Z,59
2018-07-05T01:27:44.741Z,59
2018-07-05T01:27:55.354Z,59
2018-07-05T01:28:06.665Z,59
2018-07-05T01:28:17.257Z,59
2018-07-05T01:28:28.152Z,59
2018-07-05T01:28:40.038Z,59
2018-07-05T01:28:53.310Z,59
2018-07-05T01:29:10.270Z,59
2018-07-05T01:29:33.926Z,59
2018-07-05T01:29:44.524Z,60
2018-07-05T01:29:56.015Z,60
2018-07-05T01:30:06.661Z,60
2018-07-05T01:30:18.013Z,60
2018-07-05T01:30:28.865Z,60
2018-07-05T01:30:39.727Z,60
2018-07-05T01:30:50.179Z,60
2018-07-05T01:31:02.260Z,60
2018-07-05T01:31:12.797Z,60
2018-07-05T01:31:23.269Z,60
2018-07-05T01:31:33.883Z,59
2018-07-05T01:31:44.988Z,59
2018-07-05T01:31:56.658Z,59
2018-07-05T01:32:10.134Z,59
2018-07-05T01:32:27.261Z,60
2018-07-05T01:32:50.273Z,60
2018-07-05T01:33:26.960Z,59
2018-07-05T01:33:37.466Z,59
2018-07-05T01:33:48.099Z,59
2018-07-05T01:33:58.682Z,59
2018-07-05T01:34:09.526Z,59
2018-07-05T01:34:21.236Z,59
2018-07-05T01:34:34.544Z,59
2018-07-05T01:34:51.264Z,59
2018-07-05T01:35:14.863Z,59
2018-07-05T01:35:51.346Z,59
2018-07-05T01:36:02.018Z,59
2018-07-05T01:36:12.480Z,59
2018-07-05T01:36:22.943Z,59
2018-07-05T01:36:33.806Z,59
2018-07-05T01:36:45.541Z,59
2018-07-05T01:36:58.837Z,59
2018-07-05T01:37:15.412Z,59
2018-07-05T01:37:38.166Z,59
2018-07-05T01:38:13.869Z,59
2018-07-05T01:39:15.209Z,60
2018-07-05T01:40:25.225Z,60
2018-07-05T01:41:35.362Z,60
2018-07-05T01:42:45.339Z,60
2018-07-05T01:43:55.420Z,60
2018-07-05T01:45:05.524Z,60
2018-07-05T01:46:15.565Z,60
2018-07-05T01:47:25.689Z,60
2018-07-05T01:48:35.679Z,61
2018-07-05T01:49:45.809Z,61
2018-07-05T01:50:55.936Z,61
2018-07-05T01:52:06.040Z,61
2018-07-05T01:53:15.997Z,61
2018-07-05T01:54:26.144Z,61
2018-07-05T01:55:36.183Z,60
2018-07-05T01:56:46.230Z,60
2018-07-05T01:57:56.380Z,60
2018-07-05T01:59:06.468Z,60
2018-07-05T02:00:16.535Z,60
2018-07-05T02:01:26.778Z,60
2018-07-05T02:02:37.127Z,61
2018-07-05T02:03:48.478Z,61
2018-07-05T02:03:59.768Z,61
2018-07-05T02:04:11.245Z,61
2018-07-05T02:04:22.772Z,61
2018-07-05T02:04:34.541Z,61
2018-07-05T02:04:46.107Z,61
2018-07-05T02:04:56.754Z,61
2018-07-05T02:05:07.428Z,61
2018-07-05T02:05:18.042Z,61
2018-07-05T02:05:28.936Z,61
2018-07-05T02:05:41.169Z,61
2018-07-05T02:05:54.529Z,61
2018-07-05T02:06:11.035Z,61
2018-07-05T02:06:33.970Z,61
2018-07-05T02:07:09.764Z,61
2018-07-05T02:08:11.172Z,61
2018-07-05T02:09:21.595Z,61
2018-07-05T02:10:31.822Z,61
2018-07-05T02:11:41.960Z,61
2018-07-05T02:12:52.511Z,61
2018-07-05T02:14:02.692Z,62
2018-07-05T02:15:14.210Z,62
2018-07-05T02:15:25.129Z,62
2018-07-05T02:15:35.722Z,62
2018-07-05T02:15:46.324Z,62
2018-07-05T02:15:57.668Z,62
2018-07-05T02:16:09.431Z,62
2018-07-05T02:16:23.940Z,62
2018-07-05T02:16:34.541Z,62
2018-07-05T02:16:45.190Z,62
2018-07-05T02:16:55.845Z,62
2018-07-05T02:17:06.813Z,62
2018-07-05T02:17:18.487Z,62
2018-07-05T02:17:31.754Z,62
2018-07-05T02:17:48.291Z,63
2018-07-05T02:18:11.296Z,63
2018-07-05T02:18:47.690Z,63
2018-07-05T02:19:49.120Z,64
2018-07-05T02:21:00.180Z,65
2018-07-05T02:21:11.370Z,65
2018-07-05T02:21:21.951Z,65
2018-07-05T02:21:32.832Z,65
2018-07-05T02:21:43.786Z,65
2018-07-05T02:21:56.021Z,64
2018-07-05T02:22:09.282Z,64
2018-07-05T02:22:26.798Z,64
2018-07-05T02:22:37.528Z,64
2018-07-05T02:22:48.118Z,64
2018-07-05T02:22:58.808Z,64
2018-07-05T02:23:10.021Z,64
2018-07-05T02:23:21.745Z,64
2018-07-05T02:23:35.653Z,64
2018-07-05T02:23:52.146Z,64
2018-07-05T02:24:15.087Z,64
2018-07-05T02:24:50.881Z,64
2018-07-05T02:25:52.284Z,64
2018-07-05T02:27:02.613Z,64
2018-07-05T02:28:13.757Z,64
2018-07-05T02:28:24.385Z,64
2018-07-05T02:28:34.918Z,64
2018-07-05T02:28:45.519Z,64
2018-07-05T02:28:56.445Z,64
2018-07-05T02:29:08.195Z,64
2018-07-05T02:29:21.487Z,64
2018-07-05T02:29:38.275Z,64
2018-07-05T02:30:01.177Z,64
2018-07-05T02:30:36.894Z,64
2018-07-05T02:31:38.714Z,64
2018-07-05T02:32:50.355Z,64
2018-07-05T02:33:00.910Z,65
2018-07-05T02:33:12.390Z,65
2018-07-05T02:33:23.033Z,65
2018-07-05T02:33:33.687Z,65
2018-07-05T02:33:44.893Z,65
2018-07-05T02:33:55.888Z,65
2018-07-05T02:34:07.663Z,65
2018-07-05T02:34:20.961Z,65
2018-07-05T02:34:37.501Z,65
2018-07-05T02:35:00.556Z,65
2018-07-05T02:35:36.250Z,65
2018-07-05T02:36:37.521Z,64
2018-07-05T02:37:48.767Z,64
2018-07-05T02:37:59.331Z,64
2018-07-05T02:38:09.923Z,65
2018-07-05T02:38:20.417Z,65
2018-07-05T02:38:31.316Z,65
2018-07-05T02:38:43.110Z,65
2018-07-05T02:38:56.451Z,65
2018-07-05T02:39:12.961Z,65
2018-07-05T02:39:35.832Z,65
2018-07-05T02:40:11.534Z,65
2018-07-05T02:41:12.866Z,66
2018-07-05T02:42:22.868Z,66
2018-07-05T02:43:32.970Z,66
2018-07-05T02:44:43.056Z,66
2018-07-05T02:45:53.191Z,65
2018-07-05T02:47:03.180Z,66
2018-07-05T02:48:13.366Z,66
2018-07-05T02:49:23.463Z,65
2018-07-05T02:50:34.588Z,65
2018-07-05T02:50:46.231Z,65
2018-07-05T02:50:57.004Z,65
2018-07-05T02:51:08.014Z,65
2018-07-05T02:51:18.708Z,65
2018-07-05T02:51:29.619Z,65
2018-07-05T02:51:41.328Z,65
2018-07-05T02:51:55.149Z,65
2018-07-05T02:52:11.706Z,65
2018-07-05T02:52:34.579Z,65
2018-07-05T02:53:11.151Z,65
2018-07-05T02:53:21.740Z,65
2018-07-05T02:53:32.296Z,65
2018-07-05T02:53:42.983Z,65
2018-07-05T02:53:53.831Z,65
2018-07-05T02:54:05.550Z,65
2018-07-05T02:54:19.309Z,65
2018-07-05T02:54:35.741Z,65
2018-07-05T02:54:59.711Z,65
2018-07-05T02:55:10.232Z,64
2018-07-05T02:55:21.347Z,64
2018-07-05T02:55:31.947Z,64
2018-07-05T02:55:43.961Z,64
2018-07-05T02:55:54.605Z,64
2018-07-05T02:56:05.684Z,64
2018-07-05T02:56:16.729Z,64
2018-07-05T02:56:27.728Z,64
2018-07-05T02:56:39.592Z,64
2018-07-05T02:56:53.507Z,65
2018-07-05T02:57:04.720Z,65
2018-07-05T02:57:15.878Z,65
2018-07-05T02:57:26.650Z,65
2018-07-05T02:57:37.344Z,65
2018-07-05T02:57:47.922Z,64
2018-07-05T02:57:59.543Z,64
2018-07-05T02:58:11.883Z,64
2018-07-05T02:58:26.234Z,64
2018-07-05T02:58:37.486Z,64
2018-07-05T02:58:47.996Z,64
2018-07-05T02:58:58.561Z,64
2018-07-05T02:59:09.412Z,64
2018-07-05T02:59:21.199Z,64
2018-07-05T02:59:34.609Z,64
2018-07-05T02:59:51.119Z,64
2018-07-05T03:00:15.293Z,64
2018-07-05T03:00:26.166Z,64
2018-07-05T03:00:36.836Z,64
2018-07-05T03:00:47.549Z,64
2018-07-05T03:00:58.628Z,64
2018-07-05T03:01:11.306Z,64
2018-07-05T03:01:22.011Z,64
2018-07-05T03:01:33.067Z,64
2018-07-05T03:01:43.711Z,64
2018-07-05T03:01:54.779Z,64
2018-07-05T03:02:07.148Z,64
2018-07-05T03:02:17.716Z,64
2018-07-05T03:02:28.846Z,64
2018-07-05T03:02:39.455Z,64
2018-07-05T03:02:50.388Z,65
2018-07-05T03:03:02.116Z,65
2018-07-05T03:03:15.503Z,65
2018-07-05T03:03:31.964Z,65
2018-07-05T03:03:55.039Z,64
2018-07-05T03:04:30.824Z,64
2018-07-05T03:05:33.112Z,64
2018-07-05T03:05:43.715Z,64
2018-07-05T03:05:54.277Z,64
2018-07-05T03:06:05.816Z,64
2018-07-05T03:06:16.499Z,63
2018-07-05T03:06:27.452Z,63
2018-07-05T03:06:38.161Z,63
2018-07-05T03:06:49.124Z,63
2018-07-05T03:07:01.584Z,63
2018-07-05T03:07:12.225Z,64
2018-07-05T03:07:22.733Z,64
2018-07-05T03:07:33.686Z,64
2018-07-05T03:07:44.720Z,64
2018-07-05T03:07:57.619Z,63
2018-07-05T03:08:08.835Z,63
2018-07-05T03:08:19.436Z,63
2018-07-05T03:08:29.812Z,63
2018-07-05T03:08:40.798Z,63
2018-07-05T03:08:52.616Z,63
2018-07-05T03:09:05.945Z,63
2018-07-05T03:09:22.970Z,63
2018-07-05T03:09:46.642Z,63
2018-07-05T03:09:57.214Z,63
2018-07-05T03:10:08.653Z,63
2018-07-05T03:10:20.717Z,63
2018-07-05T03:10:31.318Z,62
2018-07-05T03:10:42.323Z,62
2018-07-05T03:10:53.210Z,62
2018-07-05T03:11:04.658Z,62
2018-07-05T03:11:15.701Z,62
2018-07-05T03:11:26.243Z,63
2018-07-05T03:11:36.979Z,63
2018-07-05T03:11:47.895Z,63
2018-07-05T03:11:59.591Z,63
2018-07-05T03:12:13.047Z,62
2018-07-05T03:12:30.086Z,62
2018-07-05T03:12:53.073Z,62
2018-07-05T03:13:29.342Z,62
2018-07-05T03:14:31.719Z,62
2018-07-05T03:14:43.657Z,62
2018-07-05T03:14:54.192Z,61
2018-07-05T03:15:04.832Z,61
2018-07-05T03:15:15.494Z,61
2018-07-05T03:15:26.443Z,61
2018-07-05T03:15:39.197Z,62
2018-07-05T03:15:49.994Z,62
2018-07-05T03:16:00.732Z,62
2018-07-05T03:16:11.350Z,62
2018-07-05T03:16:22.394Z,62
2018-07-05T03:16:34.145Z,61
2018-07-05T03:16:47.428Z,61
2018-07-05T03:17:04.067Z,61
2018-07-05T03:17:26.956Z,61
2018-07-05T03:18:02.842Z,61
2018-07-05T03:19:04.429Z,60
2018-07-05T03:20:15.609Z,60
2018-07-05T03:20:26.164Z,60
2018-07-05T03:20:37.196Z,60
2018-07-05T03:20:47.816Z,60
2018-07-05T03:20:58.817Z,60
2018-07-05T03:21:10.590Z,60
2018-07-05T03:21:24.045Z,60
2018-07-05T03:21:40.633Z,61
2018-07-05T03:22:04.088Z,61
2018-07-05T03:22:14.488Z,61
2018-07-05T03:22:24.902Z,61
2018-07-05T03:22:35.744Z,61
2018-07-05T03:22:46.741Z,61
2018-07-05T03:22:58.417Z,61
2018-07-05T03:23:11.761Z,61
2018-07-05T03:23:28.250Z,61
2018-07-05T03:23:51.077Z,61
2018-07-05T03:24:26.761Z,61
2018-07-05T03:25:29.295Z,60
2018-07-05T03:25:39.916Z,60
2018-07-05T03:25:51.240Z,60
2018-07-05T03:26:01.957Z,61
2018-07-05T03:26:13.028Z,61
2018-07-05T03:26:24.912Z,61
2018-07-05T03:26:38.161Z,61
2018-07-05T03:26:54.647Z,61
2018-07-05T03:27:17.483Z,61
2018-07-05T03:27:53.220Z,61
2018-07-05T03:28:54.626Z,61
2018-07-05T03:30:04.700Z,61
2018-07-05T03:31:14.819Z,61
2018-07-05T03:32:24.994Z,61
2018-07-05T03:33:35.083Z,61
2018-07-05T03:34:45.804Z,61
2018-07-05T03:35:56.891Z,61
2018-07-05T03:36:07.427Z,61
2018-07-05T03:36:18.326Z,61
2018-07-05T03:36:29.076Z,61
2018-07-05T03:36:40.120Z,61
2018-07-05T03:36:52.535Z,61
2018-07-05T03:37:03.221Z,61
2018-07-05T03:37:14.470Z,61
2018-07-05T03:37:25.070Z,61
2018-07-05T03:37:36.209Z,61
2018-07-05T03:37:48.092Z,61
2018-07-05T03:38:01.518Z,61
2018-07-05T03:38:18.655Z,61
2018-07-05T03:38:42.520Z,61
2018-07-05T03:38:53.104Z,61
2018-07-05T03:39:03.716Z,61
2018-07-05T03:39:14.383Z,61
2018-07-05T03:39:26.283Z,61
2018-07-05T03:39:37.005Z,61
2018-07-05T03:39:47.569Z,61
2018-07-05T03:39:57.992Z,61
2018-07-05T03:40:09.367Z,61
2018-07-05T03:40:21.109Z,61
2018-07-05T03:40:34.438Z,61
2018-07-05T03:40:50.938Z,61
2018-07-05T03:41:14.545Z,61
2018-07-05T03:41:50.222Z,62
2018-07-05T03:42:52.281Z,62
2018-07-05T03:43:02.846Z,62
2018-07-05T03:43:13.877Z,62
2018-07-05T03:43:25.185Z,62
2018-07-05T03:43:35.948Z,62
2018-07-05T03:43:46.411Z,62
2018-07-05T03:43:56.906Z,62
2018-07-05T03:44:07.755Z,62
2018-07-05T03:44:20.396Z,62
2018-07-05T03:44:31.383Z,62
2018-07-05T03:44:41.783Z,62
2018-07-05T03:44:52.272Z,62
2018-07-05T03:45:03.153Z,62
2018-07-05T03:45:15.515Z,62
2018-07-05T03:45:28.874Z,62
2018-07-05T03:45:45.409Z,62
2018-07-05T03:46:09.397Z,62
2018-07-05T03:46:20.610Z,62
2018-07-05T03:46:31.189Z,62
2018-07-05T03:46:41.828Z,62
2018-07-05T03:46:52.681Z,62
2018-07-05T03:47:04.833Z,62
2018-07-05T03:47:18.218Z,62
2018-07-05T03:47:35.747Z,62
2018-07-05T03:47:46.137Z,62
2018-07-05T03:47:56.627Z,62
2018-07-05T03:48:07.307Z,62
2018-07-05T03:48:19.036Z,62
2018-07-05T03:48:29.661Z,62
2018-07-05T03:48:41.008Z,62
2018-07-05T03:48:51.582Z,62
2018-07-05T03:49:02.085Z,62
2018-07-05T03:49:12.731Z,62
2018-07-05T03:49:24.867Z,62
2018-07-05T03:49:35.418Z,62
2018-07-05T03:49:46.318Z,62
2018-07-05T03:49:57.310Z,62
2018-07-05T03:50:09.159Z,62
2018-07-05T03:50:20.503Z,62
2018-07-05T03:50:31.009Z,62
2018-07-05T03:50:42.895Z,62
2018-07-05T03:50:53.458Z,62
2018-07-05T03:51:04.507Z,62
2018-07-05T03:51:15.122Z,62
2018-07-05T03:51:26.042Z,62
2018-07-05T03:51:38.191Z,63
2018-07-05T03:51:51.897Z,63
2018-07-05T03:52:08.868Z,63
2018-07-05T03:52:32.319Z,62
2018-07-05T03:53:08.293Z,62
2018-07-05T03:54:09.559Z,62
2018-07-05T03:55:20.514Z,62
2018-07-05T03:55:31.204Z,62
2018-07-05T03:55:42.501Z,62
2018-07-05T03:55:52.926Z,62
2018-07-05T03:56:03.329Z,62
2018-07-05T03:56:13.889Z,62
2018-07-05T03:56:24.830Z,62
2018-07-05T03:56:36.586Z,62
2018-07-05T03:56:49.852Z,62
2018-07-05T03:57:06.372Z,62
2018-07-05T03:57:29.950Z,62
2018-07-05T03:58:06.331Z,62
2018-07-05T03:58:17.005Z,62
2018-07-05T03:58:27.557Z,62
2018-07-05T03:58:38.822Z,62
2018-07-05T03:58:49.407Z,62
2018-07-05T03:59:01.090Z,62
2018-07-05T03:59:11.628Z,62
2018-07-05T03:59:22.175Z,62
2018-07-05T03:59:32.670Z,62
2018-07-05T03:59:43.554Z,62
2018-07-05T03:59:55.200Z,62
2018-07-05T04:00:08.701Z,62
2018-07-05T04:00:26.054Z,62
2018-07-05T04:00:36.877Z,62
2018-07-05T04:00:48.516Z,62
2018-07-05T04:00:59.257Z,61
2018-07-05T04:01:10.218Z,61
2018-07-05T04:01:20.990Z,61
2018-07-05T04:01:31.908Z,61
2018-07-05T04:01:43.639Z,61
2018-07-05T04:01:56.961Z,61
2018-07-05T04:02:13.535Z,61
2018-07-05T04:02:36.541Z,61
2018-07-05T04:02:48.236Z,61
2018-07-05T04:02:59.644Z,61
2018-07-05T04:03:10.134Z,61
2018-07-05T04:03:20.460Z,61
2018-07-05T04:03:31.010Z,62
2018-07-05T04:03:41.886Z,62
2018-07-05T04:03:53.539Z,62
2018-07-05T04:04:06.736Z,62
2018-07-05T04:04:23.214Z,62
2018-07-05T04:04:46.366Z,62
2018-07-05T04:05:21.967Z,62
2018-07-05T04:06:23.220Z,62
2018-07-05T04:07:34.362Z,62
2018-07-05T04:07:45.989Z,62
2018-07-05T04:07:57.792Z,62
2018-07-05T04:08:09.353Z,62
2018-07-05T04:08:20.272Z,62
2018-07-05T04:08:31.405Z,62
2018-07-05T04:08:41.992Z,62
2018-07-05T04:08:53.231Z,62
2018-07-05T04:09:03.756Z,62
2018-07-05T04:09:15.048Z,62
2018-07-05T04:09:25.582Z,62
2018-07-05T04:09:37.589Z,62
2018-07-05T04:09:48.327Z,62
2018-07-05T04:09:59.591Z,62
2018-07-05T04:10:10.059Z,62
2018-07-05T04:10:20.997Z,62
2018-07-05T04:10:33.078Z,62
2018-07-05T04:10:46.675Z,62
2018-07-05T04:11:03.500Z,62
2018-07-05T04:11:26.494Z,62
2018-07-05T04:12:03.516Z,61
2018-07-05T04:12:14.773Z,61
2018-07-05T04:12:25.288Z,61
2018-07-05T04:12:35.840Z,61
2018-07-05T04:12:46.742Z,61
2018-07-05T04:12:59.142Z,62
2018-07-05T04:13:09.693Z,62
2018-07-05T04:13:21.132Z,62
2018-07-05T04:13:31.679Z,62
2018-07-05T04:13:43.207Z,61
2018-07-05T04:13:53.771Z,61
2018-07-05T04:14:04.322Z,61
2018-07-05T04:14:14.927Z,61
2018-07-05T04:14:25.882Z,61
2018-07-05T04:14:37.542Z,61
2018-07-05T04:14:50.806Z,61
2018-07-05T04:15:07.300Z,61
2018-07-05T04:15:30.180Z,61
2018-07-05T04:16:06.434Z,61
2018-07-05T04:17:08.853Z,61
2018-07-05T04:17:20.086Z,61
2018-07-05T04:17:30.423Z,61
2018-07-05T04:17:40.933Z,61
2018-07-05T04:17:52.684Z,61
2018-07-05T04:18:03.286Z,61
2018-07-05T04:18:14.380Z,61
2018-07-05T04:18:24.981Z,61
2018-07-05T04:18:35.824Z,61
2018-07-05T04:18:47.452Z,61
2018-07-05T04:19:00.818Z,61
2018-07-05T04:19:17.411Z,61
2018-07-05T04:19:40.896Z,61
2018-07-05T04:20:17.966Z,61
2018-07-05T04:20:28.441Z,61
2018-07-05T04:20:38.980Z,61
2018-07-05T04:20:49.517Z,61
2018-07-05T04:21:00.475Z,61
2018-07-05T04:21:12.560Z,61
2018-07-05T04:21:25.871Z,61
2018-07-05T04:21:42.372Z,61
2018-07-05T04:22:05.283Z,61
2018-07-05T04:22:40.988Z,61
2018-07-05T04:23:42.366Z,61
2018-07-05T04:24:52.644Z,60
2018-07-05T04:26:05.131Z,60
2018-07-05T04:26:19.154Z,60
2018-07-05T04:26:31.919Z,60
2018-07-05T04:26:46.013Z,60
2018-07-05T04:26:58.709Z,60
2018-07-05T04:27:10.970Z,60
2018-07-05T04:27:23.635Z,60
2018-07-05T04:27:35.973Z,60
2018-07-05T04:27:48.785Z,60
2018-07-05T04:28:01.602Z,60
2018-07-05T04:28:14.186Z,60
2018-07-05T04:28:26.529Z,60
2018-07-05T04:28:38.034Z,60
2018-07-05T04:28:50.014Z,60
2018-07-05T04:29:01.791Z,60
2018-07-05T04:29:12.510Z,60
2018-07-05T04:29:22.944Z,60